Main page
Satellite images Climate Cyclones Lightning AirportsFAQ Languages Contact Newsletter About
Weather : Europe Africa North America South America Asia Australia-Oceania Others

1217, Macau, Macau International Airport

latitude: , longitude: China, elevation: 22-10N m


METAR: VMMC 270030Z 36013KT 8000 FEW018 30/26 Q1004 NOSIG